Aérodrome :
LOGIN :

S'inscrire | Disclaimer

   EN    FR    IT 

 










Légende :    VFR   VFR Marginal   IFR   IFR Intensif   IFR Très Intensif
Visi : 
Plafond : 
>= 8 km
>= 3000ft
5 à 8 km
1000 à 3000 ft
1500m à 5 km
500 à 1000 ft
800 à 1500m
200 à 500 ft
< 800m
< 200 ft
Symboles :   Orages  Brouillard  Fortes neiges  Fortes précipitations  Vent > 20 kt
SIGMETs :   Divers  Orages  Givrage  Turbulence  Onde Orograph.  Cendres Volcan.







- Altitude de l'aérodrome : 308 ft
- Code IATA : POZ


EPPO - Poznan-Lawica

DERNIER METAR :
  • 210300Z 27005KT 6000 OVC003 M04/M05 Q1022

METARs EXPIRÉS :
  • 210230Z 29004KT 6000 OVC003 M04/M05 Q1022
  • 210200Z 28006KT 7000 OVC003 M04/M05 Q1023
  • 210130Z 28006KT 6000 OVC002 M04/M05 Q1023
  • 210100Z 30007KT 4500 BR OVC002 M05/M05 Q1022
  • 210030Z 27006KT 6000 BKN003 M05/M06 Q1022
  • 210000Z 27004KT 6000 BKN007 M07/M07 Q1022

TAF AMD TAF EPPO
Valide du 21 à 01h jusqu'au 22 à 00h UTC


210101Z 2101/2124 29006KT 4500 BR BKN007
TEMPO 2101/2106 1400 BR BKN002
BECMG 2108/2111 8000 BKN020
Pas de NOTAMs connus pour ce terrain.



MET'MAP, la Météo Aéronautique d'un coup d'oeil ! - Copyright ORBIFLY Décembre 2007 - Disclaimer

ORBIFLY MET'MAP TEAM :

Programmation & Développement : Alexandra Zaïnal
Conception & Développement : Baudouin d'Aumeries
Co-Programmation & Développement : Marc-Olivier Méhu
Soutien technique & logistique : Manuel Goepfert

Contact : metmap@orbifly.com




SOURCES & CREDITS :

   NOAA